Latest Weather Observations for The Monument

IDQ60801

Issued at 10:32 pm EST Wednesday 5 August 2015 (issued every 30 minutes, with the page automatically refreshed every 10 minutes)

About weather observations | Map of weather stations | Latest weather observations for QLD | Other Formats
Station Details ID: 037034 Name: THE MONUMENT AIRPORT Lat: -21.81 Lon: 139.93 Height: 288.4 m
Data from the previous 72 hours. | See also: Recent months at The Monument
Date/Time
EST
Temp
°C
App
Temp
°C
Dew
Point
Rel
Hum
%
Delta-T
°C
Wind Press
QNH
hPa
Press
MSL
hPa
Rain
since 9 am
mm
Dir
 
Spd
km/h
Gust
km/h
Spd
kts
Gust
kts
05/10:30pm 12.5 7.5 -4.1 31 6.3 S 13 15 7 8 1022.8 1022.2 0.0
05/10:00pm 13.4 8.0 -4.2 29 6.7 S 15 19 8 10 1022.6 1022.0 0.0
05/09:30pm 13.9 8.5 -4.3 28 7.0 S 15 17 8 9 1022.4 1021.8 0.0
05/09:00pm 14.6 9.2 -4.2 27 7.3 S 15 20 8 11 1022.4 1021.8 0.0
05/08:30pm 15.1 9.7 -4.2 26 7.6 S 15 19 8 10 1022.3 1021.7 0.0
05/08:00pm 15.9 10.2 -3.6 26 7.8 S 17 20 9 11 1022.0 1021.4 0.0
05/07:30pm 16.6 11.3 -3.5 25 8.1 S 15 19 8 10 1021.8 1021.2 0.0
05/07:00pm 17.6 11.5 -3.7 23 8.6 S 19 26 10 14 1021.4 1020.7 0.0
05/06:30pm 18.2 12.2 -3.2 23 8.8 S 19 28 10 15 1021.2 1020.5 0.0
05/06:00pm 19.3 13.1 -2.9 22 9.3 SSE 20 32 11 17 1021.0 1020.3 0.0
05/05:30pm 20.2 14.2 -3.4 20 9.9 SSE 19 32 10 17 1020.8 1020.1 0.0
05/05:00pm 20.5 14.2 -3.9 19 10.1 SSE 20 33 11 18 1020.8 1020.1 0.0
05/04:30pm 20.8 14.2 -3.0 20 10.1 SSE 22 32 12 17 1020.6 1019.9 0.0
05/04:00pm 20.8 14.3 -2.3 21 9.9 SE 22 33 12 18 1020.4 1019.7 0.0
05/03:30pm 20.9 14.3 -2.9 20 10.2 SE 22 35 12 19 1020.4 1019.7 0.0
05/03:00pm 21.1 15.0 -2.7 20 10.2 SE 20 32 11 17 1020.5 1019.8 0.0
05/02:30pm 21.3 15.3 -1.9 21 10.1 SSE 20 32 11 17 1021.0 1020.3 0.0
05/02:00pm 19.5 13.5 -1.6 24 9.1 SSE 20 32 11 17 1021.2 1020.5 0.0
05/01:30pm 19.6 12.8 -1.5 24 9.2 SSE 24 33 13 18 1021.8 1021.2 0.0
05/01:00pm 19.2 12.9 -0.7 26 8.7 SE 22 32 12 17 1022.3 1021.7 0.0
05/12:30pm 18.2 11.2 -0.6 28 8.2 SE 26 44 14 24 1022.9 1022.3 0.0
05/12:00pm 18.0 11.8 -0.3 29 8.0 SE 22 33 12 18 1023.4 1022.8 0.0
05/11:30am 17.4 10.9 0.1 31 7.6 SSE 24 37 13 20 1024.0 1023.3 0.0
05/11:00am 17.1 10.3 0.7 33 7.2 SE 26 37 14 20 1024.6 1024.0 0.0
05/10:30am 15.7 7.7 0.7 36 6.6 SE 32 41 17 22 1024.9 1024.3 0.0
05/10:00am 14.8 7.2 0.6 38 6.1 SE 30 41 16 22 1024.9 1024.3 0.0
05/09:30am 13.7 5.6 0.7 41 5.6 SE 33 43 18 23 1024.7 1024.1 0.0
05/09:00am 12.8 6.8 0.9 44 5.1 SE 22 32 12 17 1024.4 1023.7 0.0
05/08:30am 11.0 5.5 0.4 48 4.4 SSE 19 28 10 15 1024.2 1023.5 0.0
05/08:00am 9.6 5.1 0.0 51 3.9 SE 13 19 7 10 1024.0 1023.3 0.0
05/07:30am 7.9 3.7 -0.6 55 3.4 SE 11 15 6 8 1023.7 1023.1 0.0
05/07:00am 7.9 3.3 -0.8 54 3.4 SE 13 17 7 9 1023.4 1022.8 0.0
05/06:30am 8.4 3.5 -0.6 53 3.6 SSE 15 20 8 11 1023.0 1022.4 0.0
05/06:00am 8.9 3.2 -0.7 51 3.8 SSE 19 26 10 14 1022.7 1022.1 0.0
05/05:30am 8.8 3.1 -1.0 50 3.9 SSE 19 24 10 13 1022.5 1021.9 0.0
05/05:00am 8.9 3.5 -1.5 48 4.0 SSE 17 24 9 13 1022.5 1021.9 0.0
05/04:30am 9.0 3.9 -2.0 46 4.2 SSE 15 20 8 11 1022.4 1021.8 0.0
05/04:00am 9.2 3.3 -2.1 45 4.3 SSE 19 22 10 12 1022.5 1021.9 0.0
05/03:30am 9.3 3.3 -3.3 41 4.7 S 19 26 10 14 1022.5 1021.9 0.0
05/03:00am 9.9 3.3 -3.0 40 4.9 S 22 28 12 15 1022.6 1022.0 0.0
05/02:30am 10.0 4.0 -3.3 39 5.0 S 19 24 10 13 1022.8 1022.2 0.0
05/02:00am 10.4 4.2 -2.9 39 5.1 S 20 24 11 13 1022.8 1022.2 0.0
05/01:30am 10.5 4.5 -3.2 38 5.2 S 19 24 10 13 1023.0 1022.4 0.0
05/01:00am 11.0 4.4 -3.1 37 5.4 S 22 30 12 16 1023.0 1022.4 0.0
05/12:30am 11.3 5.3 -3.2 36 5.6 S 19 22 10 12 1023.0 1022.4 0.0
05/12:00am 11.9 5.9 -3.4 34 5.9 S 19 24 10 13 1023.1 1022.5 0.0
 
Date/Time
EST
Temp
°C
App
Temp
°C
Dew
Point
Rel
Hum
%
Delta-T
°C
Wind Press
QNH
hPa
Press
MSL
hPa
Rain
since 9 am
mm
Dir
 
Spd
km/h
Gust
km/h
Spd
kts
Gust
kts
04/11:30pm 12.4 6.7 -3.4 33 6.1 S 17 22 9 12 1023.2 1022.6 0.0
04/11:00pm 13.1 7.1 -3.2 32 6.4 S 19 24 10 13 1023.2 1022.6 0.0
04/10:30pm 13.6 8.0 -3.2 31 6.6 SSE 17 24 9 13 1023.4 1022.8 0.0
04/10:00pm 12.8 7.8 -3.9 31 6.4 S 13 15 7 8 1023.5 1022.9 0.0
04/09:30pm 13.8 8.9 -3.5 30 6.8 S 13 17 7 9 1023.5 1022.9 0.0
04/09:00pm 14.5 9.2 -3.8 28 7.2 SSE 15 19 8 10 1023.2 1022.6 0.0
04/08:30pm 14.8 9.9 -3.5 28 7.3 SSE 13 17 7 9 1022.9 1022.3 0.0
04/08:00pm 15.4 10.1 -3.5 27 7.5 S 15 17 8 9 1022.6 1022.0 0.0
04/07:30pm 16.5 11.1 -4.1 24 8.2 SSE 15 20 8 11 1022.2 1021.6 0.0
04/07:00pm 17.0 11.2 -4.3 23 8.5 SSE 17 22 9 12 1021.7 1021.1 0.0
04/06:30pm 17.9 10.0 -4.7 21 9.0 SSE 28 35 15 19 1021.8 1021.2 0.0
04/06:00pm 18.8 11.5 -6.0 18 9.7 SSE 24 32 13 17 1021.8 1021.2 0.0
04/05:30pm 19.5 11.9 -5.4 18 10.0 SSE 26 39 14 21 1021.8 1021.2 0.0
04/05:00pm 20.7 13.1 -5.2 17 10.5 S 26 37 14 20 1021.7 1021.1 0.0
04/04:30pm 20.7 13.1 -6.0 16 10.7 SSE 26 37 14 20 1021.5 1020.8 0.0
04/04:00pm 21.2 13.7 -4.8 17 10.7 SSE 26 37 14 20 1021.5 1020.8 0.0
04/03:30pm 20.6 12.3 -5.3 17 10.5 SSE 30 39 16 21 1021.7 1021.1 0.0
04/03:00pm 21.1 13.3 -3.4 19 10.3 SSE 28 39 15 21 1021.8 1021.2 0.0
04/02:30pm 20.3 12.6 -2.7 21 9.8 SSE 28 39 15 21 1022.2 1021.6 0.0
04/02:00pm 19.9 12.7 -2.4 22 9.5 SSE 26 35 14 19 1022.7 1022.1 0.0
04/01:30pm 19.4 11.9 -1.7 24 9.1 SSE 28 39 15 21 1023.3 1022.7 0.0
04/01:00pm 18.7 11.6 -1.2 26 8.6 SSE 26 35 14 19 1024.1 1023.4 0.0
04/12:30pm 17.7 10.2 -1.5 27 8.2 SE 28 41 15 22 1024.6 1024.0 0.0
04/12:00pm 17.6 10.1 -1.1 28 8.0 SSE 28 39 15 21 1025.1 1024.5 0.0
04/11:39am 17.5 10.1 -0.7 29 7.9 SSE 28 46 15 25 1025.5 1024.9 0.0
04/11:30am 17.0 9.6 -0.7 30 7.6 SE 28 39 15 21 1025.7 1025.1 0.0
04/11:00am 16.7 9.3 -0.5 31 7.4 SE 28 43 15 23 1026.1 1025.5 0.0
04/10:30am 15.3 6.7 0.3 36 6.5 SE 35 44 19 24 1026.2 1025.6 0.0
04/10:00am 14.1 6.0 0.0 38 6.0 SSE 32 43 17 23 1026.2 1025.6 0.0
04/09:30am 13.5 5.8 -0.2 39 5.8 SE 30 41 16 22 1025.9 1025.3 0.0
04/09:00am 12.3 5.0 0.1 43 5.1 SSE 28 39 15 21 1025.8 1025.2 0.0
04/08:30am 10.6 5.0 -0.2 47 4.4 SSE 19 28 10 15 1025.8 1025.2 0.0
04/08:00am 8.9 3.6 -0.7 51 3.8 S 17 24 9 13 1025.5 1024.9 0.0
04/07:30am 7.4 2.8 -1.3 54 3.4 S 13 15 7 8 1025.3 1024.7 0.0
04/07:00am 7.6 2.6 -1.1 54 3.4 S 15 20 8 11 1024.9 1024.3 0.0
04/06:30am 8.2 2.9 -0.8 53 3.5 S 17 20 9 11 1024.7 1024.1 0.0
04/06:00am 8.3 3.4 -0.7 53 3.5 S 15 20 8 11 1024.3 1023.6 0.0
04/05:30am 8.4 3.4 -0.9 52 3.7 S 15 20 8 11 1023.8 1023.2 0.0
04/05:00am 8.6 3.6 -0.9 51 3.7 S 15 20 8 11 1023.7 1023.1 0.0
04/04:30am 8.7 4.1 -0.9 51 3.8 S 13 17 7 9 1023.7 1023.1 0.0
04/04:00am 9.0 4.4 -1.1 49 4.0 S 13 17 7 9 1023.4 1022.8 0.0
04/03:30am 9.6 4.6 -1.1 47 4.2 S 15 19 8 10 1023.6 1023.0 0.0
04/03:00am 10.0 5.0 -1.4 45 4.5 S 15 20 8 11 1023.6 1023.0 0.0
04/02:30am 10.7 5.3 -1.4 43 4.8 S 17 26 9 14 1023.8 1023.2 0.0
04/02:00am 11.3 5.4 -2.1 39 5.3 S 19 24 10 13 1024.0 1023.3 0.0
04/01:30am 11.8 5.9 -2.4 37 5.6 S 19 26 10 14 1023.8 1023.2 0.0
04/01:00am 12.4 6.2 -3.0 34 6.0 S 20 28 11 15 1024.0 1023.3 0.0
04/12:30am 13.0 6.1 -2.9 33 6.3 S 24 33 13 18 1024.0 1023.3 0.0
04/12:00am 13.2 6.6 -3.5 31 6.5 S 22 30 12 16 1024.1 1023.4 0.0
 
Date/Time
EST
Temp
°C
App
Temp
°C
Dew
Point
Rel
Hum
%
Delta-T
°C
Wind Press
QNH
hPa
Press
MSL
hPa
Rain
since 9 am
mm
Dir
 
Spd
km/h
Gust
km/h
Spd
kts
Gust
kts
03/11:30pm 13.8 7.1 -3.9 29 6.9 S 22 32 12 17 1024.1 1023.4 0.0
03/11:00pm 14.3 7.6 -3.9 28 7.1 S 22 32 12 17 1024.2 1023.5 0.0
03/10:30pm 14.8 7.7 -4.0 27 7.4 S 24 32 13 17 1024.2 1023.5 0.0
03/10:00pm 15.2 8.9 -3.6 27 7.4 S 20 30 11 16 1024.2 1023.5 0.0
03/09:30pm 15.8 9.7 -3.6 26 7.8 S 19 26 10 14 1024.1 1023.4 0.0
03/09:00pm 16.4 10.1 -3.7 25 8.0 S 20 28 11 15 1024.0 1023.3 0.0
03/08:30pm 17.1 11.0 -2.5 26 8.1 S 20 30 11 16 1023.6 1023.0 0.0
03/08:00pm 17.6 11.1 -2.6 25 8.4 S 22 33 12 18 1023.1 1022.5 0.0
03/07:30pm 18.4 11.9 -2.5 24 8.8 S 22 32 12 17 1022.8 1022.2 0.0
03/07:00pm 18.9 12.6 -1.0 26 8.6 S 22 30 12 16 1022.6 1022.0 0.0
03/06:30pm 19.5 12.9 -0.5 26 8.8 S 24 35 13 19 1022.3 1021.7 0.0
03/06:00pm 20.4 12.3 -0.3 25 9.2 S 32 43 17 23 1022.1 1021.5 0.0
03/05:30pm 21.2 13.8 -0.7 23 9.8 S 28 39 15 21 1021.8 1021.2 0.0
03/05:00pm 22.1 14.8 0.0 23 10.0 S 28 43 15 23 1021.6 1021.0 0.0
03/04:30pm 22.4 14.5 0.9 24 10.0 S 32 39 17 21 1021.4 1020.7 0.0
03/04:00pm 22.7 15.6 1.1 24 10.1 S 28 39 15 21 1021.4 1020.7 0.0
03/03:30pm 22.6 15.2 1.6 25 9.9 S 30 41 16 22 1021.5 1020.8 0.0
03/03:00pm 22.7 15.0 2.2 26 9.8 SSE 32 43 17 23 1021.6 1021.0 0.0
03/02:30pm 22.2 14.5 2.3 27 9.5 S 32 44 17 24 1021.8 1021.2 0.0
03/02:00pm 22.4 15.3 3.5 29 9.2 S 30 41 16 22 1022.3 1021.7 0.0
03/01:33pm 21.8 15.1 3.5 30 8.9 S 28 46 15 25 1022.7 1022.1 0.0
03/01:30pm 21.9 15.3 4.0 31 8.8 S 28 41 15 22 1022.8 1022.2 0.0
03/01:00pm 21.0 14.4 4.1 33 8.2 SSE 28 37 15 20 1023.3 1022.7 0.0
03/12:30pm 20.4 12.9 3.6 33 8.1 S 32 43 17 23 1023.7 1023.1 0.0
03/12:02pm 19.8 13.2 4.3 36 7.6 SSE 28 50 15 27 1024.1 1023.4 0.0
03/12:00pm 20.1 13.2 4.6 36 7.6 SSE 30 41 16 22 1024.3 1023.6 0.0
03/11:30am 19.0 12.1 4.7 39 7.0 S 30 39 16 21 1024.5 1023.8 0.0
03/11:00am 18.2 11.8 5.1 42 6.4 SSE 28 39 15 21 1024.7 1024.1 0.0
03/10:30am 17.8 11.8 5.1 43 6.2 SSE 26 41 14 22 1024.9 1024.3 0.0
03/10:00am 16.0 9.8 4.4 46 5.5 SSE 26 37 14 20 1024.8 1024.2 0.0
03/09:30am 15.4 9.2 4.5 48 5.2 SSE 26 35 14 19 1024.6 1024.0 0.0
03/09:00am 14.4 8.5 4.1 50 4.8 S 24 37 13 20 1024.2 1023.5 0.0
03/08:30am 13.5 7.3 4.1 53 4.4 S 26 35 14 19 1024.0 1023.3 0.0
03/08:00am 13.0 7.9 4.2 55 4.0 S 20 28 11 15 1023.6 1023.0 0.0
03/07:30am 12.5 8.0 4.2 57 3.8 S 17 24 9 13 1023.2 1022.6 0.0
03/07:00am 12.7 7.7 4.4 57 3.8 S 20 30 11 16 1022.8 1022.2 0.0
03/06:30am 12.9 8.0 4.3 56 4.0 S 19 22 10 12 1022.5 1021.9 0.0
03/06:00am 13.3 8.3 4.5 55 4.1 S 20 28 11 15 1022.3 1021.7 0.0
03/05:30am 13.8 8.4 4.7 54 4.3 SSW 22 30 12 16 1022.1 1021.5 0.0
03/05:00am 14.1 8.4 4.7 53 4.4 S 24 30 13 16 1021.8 1021.2 0.0
03/04:30am 14.5 9.5 4.8 52 4.6 S 20 28 11 15 1021.6 1021.0 0.0
03/04:00am 14.9 10.0 4.9 51 4.7 S 20 30 11 16 1021.7 1021.1 0.0
03/03:30am 15.5 10.2 5.1 50 5.0 S 22 33 12 18 1021.7 1021.1 0.0
03/03:00am 16.0 10.3 5.0 48 5.3 S 24 33 13 18 1021.8 1021.2 0.0
03/02:30am 16.6 10.6 5.3 47 5.5 S 26 35 14 19 1021.9 1021.3 0.0
03/02:00am 17.2 11.2 5.5 46 5.7 S 26 35 14 19 1022.0 1021.4 0.0
03/01:30am 17.8 11.1 5.4 44 6.1 S 30 41 16 22 1021.9 1021.3 0.0
03/01:12am 18.3 12.0 5.8 44 6.2 S 28 43 15 23 1021.8 1021.2 0.0
03/01:00am 18.4 13.6 5.6 43 6.3 S 20 24 11 13 1021.7 1021.1 0.0
03/12:30am 19.2 14.1 6.0 42 6.6 S 22 32 12 17 1021.5 1020.8 0.0
03/12:00am 19.9 13.6 5.9 40 7.0 S 28 44 15 24 1021.3 1020.6 0.0
 
Date/Time
EST
Temp
°C
App
Temp
°C
Dew
Point
Rel
Hum
%
Delta-T
°C
Wind Press
QNH
hPa
Press
MSL
hPa
Rain
since 9 am
mm
Dir
 
Spd
km/h
Gust
km/h
Spd
kts
Gust
kts
02/11:30pm 20.6 14.5 5.0 36 7.8 SSW 26 35 14 19 1021.1 1020.4 0.0
02/11:00pm 21.4 15.4 3.1 30 8.8 S 24 35 13 19 1020.9 1020.2 0.0

Other Formats:

Comma delimited format used in spreadsheet applications
http://www.bom.gov.au/fwo/IDQ60801/IDQ60801.94336.axf

JavaScript Object Notation format (JSON) in row-major order
http://www.bom.gov.au/fwo/IDQ60801/IDQ60801.94336.json